Belgrade, MT (59714)

8:02 PM MDT on August 03, 2015 (GMT -0600)
Belgrade Gardens | | Change Station
CLOSE
Current Station
Personal Weather Station
Location: Belgrade, MT
Elevation: 4386 ft
Nearby Weather Stations

Elev 4386 ft 45.80 °N, 111.21 °W | Updated 32 seconds ago

Clear
Clear
82.0 °F
Feels Like 80 °F
N
16.6
Wind Variable Wind from East
Gusts 18.1 mph

Today
High -- | Low -- °F
--% Chance of Precip.
Yesterday
High -- | Low -- °F
Precip. -- in
6:09 AM 8:51 PM
Waning Gibbous, 82% visible
Pressure 29.76 in
Visibility 10.0 miles
Clouds Clear
Heat Index 80 °F
Dew Point 47 °F
Humidity 29%
Rainfall 0.00 in
Snow Depth Not available.
UV 0 out of 12
Pollen 5.30 out of 12
Air Quality Not available.
Flu Activity Not available.
METAR KBZN 040156Z 12017G24KT 10SM CLR 27/07 A2989 RMK AO2 LTG DSNT SE SLP077 T02720072

More Conditions Fewer Conditions

Pressure 29.76 in
Visibility 10.0 miles
Clouds Clear
Heat Index 80 °F
Dew Point 47 °F
Humidity 29%
Rainfall 0.00 in
Snow Depth Not available.
UV 0 out of 12
Pollen 5.30 out of 12
Air Quality Not available.
Flu Activity Not available.
METAR KBZN 040156Z 12017G24KT 10SM CLR 27/07 A2989 RMK AO2 LTG DSNT SE SLP077 T02720072

More Conditions Fewer Conditions

10-Day Weather Forecast

×

Almanac

Astronomy

Aug. 03, 2015 Rise Set
Actual Time
Civil Twilight
Nautical Twilight
Astronomical Twilight
Moon
Length of Visible Light
Length of Day
Tomorrow will be .
, % of the Moon is Illuminated

Today's Extremes

State Highs State Lows

Community

WunderPhotos

Upload Photos

1,843,825 photos uploaded!

WunderBlogs® & News

Nearby

Air Quality

  Air Quality AQ Index Pollutant
Not available.

Snow Depth

Station Depth Elevation

Earthquake Activity

City Distance Mag. Time & Date
Minimum magnitude displayed is 2.5.

Coastal Water Temperatures

Place Temperature

Stations

Nearby Weather Stations

Station Location Temp. Windchill Dew Point Humidity Wind Precip. Elev Updated Type